createdAt,value
2023-03-30T00:01:29.411Z,100009.06
2023-03-30T00:03:31.584Z,100003.88
2023-03-30T00:05:35.925Z,100043.47
2023-03-30T00:07:40.757Z,99995.28
2023-03-30T00:09:43.818Z,99998.72
2023-03-30T00:11:48.128Z,100005.59
2023-03-30T00:13:51.067Z,100001.31
2023-03-30T00:15:53.267Z,100047.78
2023-03-30T00:17:59.398Z,100009.91
2023-03-30T00:20:02.795Z,100005.59
2023-03-30T00:22:07.014Z,100002.16
2023-03-30T00:24:11.495Z,99994.44
2023-03-30T00:26:16.458Z,100009.91
2023-03-30T00:28:18.411Z,100004.72
2023-03-30T00:30:20.498Z,100009.06
2023-03-30T00:32:22.752Z,100021.13
2023-03-30T00:34:24.736Z,100009.91
2023-03-30T00:36:26.894Z,100003.03
2023-03-30T00:38:29.922Z,99997.00
2023-03-30T00:40:34.267Z,100030.56
2023-03-30T00:42:37.749Z,100000.44
2023-03-30T00:44:58.907Z,100005.63
2023-03-30T00:47:01.062Z,99994.41
2023-03-30T00:49:10.473Z,99990.97
2023-03-30T00:51:14.216Z,99980.66
2023-03-30T00:53:28.909Z,99988.38
2023-03-30T00:55:33.938Z,99972.91
2023-03-30T00:57:39.400Z,99977.19
2023-03-30T00:59:41.942Z,99979.78
2023-03-30T01:01:50.478Z,99989.25
2023-03-30T01:03:52.967Z,99973.75
2023-03-30T01:05:57.296Z,99972.91
2023-03-30T01:07:59.986Z,99976.34
2023-03-30T01:10:02.577Z,99990.97
2023-03-30T01:12:05.602Z,99975.47
2023-03-30T01:14:11.415Z,99986.69
2023-03-30T01:16:32.934Z,99976.34
2023-03-30T01:18:36.148Z,99984.09
2023-03-30T01:20:38.863Z,99981.50
2023-03-30T01:22:59.275Z,99984.06
2023-03-30T01:25:15.391Z,99986.69
2023-03-30T01:27:27.464Z,99984.06
2023-03-30T01:29:44.500Z,99969.47
2023-03-30T01:32:05.901Z,99962.56
2023-03-30T01:34:18.242Z,99978.91
2023-03-30T01:36:26.883Z,99998.72
2023-03-30T01:38:48.916Z,99973.75
2023-03-30T01:41:00.125Z,99981.47
2023-03-30T01:43:15.959Z,99970.31
2023-03-30T01:45:34.545Z,99982.34
2023-03-30T01:47:51.908Z,100027.03
2023-03-30T01:50:04.574Z,99997.75
2023-03-30T01:52:20.285Z,99999.41
2023-03-30T01:54:27.494Z,99984.84
2023-03-30T01:56:39.648Z,99995.94
2023-03-30T01:58:51.067Z,99991.69
2023-03-30T02:00:55.005Z,100005.34
2023-03-30T02:03:07.000Z,99988.13
2023-03-30T02:05:11.647Z,99995.00
2023-03-30T02:07:18.656Z,100004.50
2023-03-30T02:09:24.045Z,100002.78
2023-03-30T02:11:28.319Z,100000.19
2023-03-30T02:13:33.192Z,99999.38
2023-03-30T02:15:39.205Z,100007.06
2023-03-30T02:17:42.552Z,100003.59
2023-03-30T02:19:47.084Z,100000.97
2023-03-30T02:21:50.831Z,100012.13
2023-03-30T02:23:56.046Z,100009.66
2023-03-30T02:25:58.515Z,100003.56
2023-03-30T02:28:00.948Z,100006.22
2023-03-30T02:30:03.797Z,100014.75
2023-03-30T02:32:06.619Z,100011.41
2023-03-30T02:34:19.649Z,100002.00
2023-03-30T02:36:39.490Z,99993.41
2023-03-30T02:38:44.848Z,100002.84
2023-03-30T02:40:57.931Z,100016.66
2023-03-30T02:43:17.869Z,100003.78
2023-03-30T02:45:27.395Z,100004.63
2023-03-30T02:47:38.967Z,100014.03
2023-03-30T02:49:57.727Z,100037.25
2023-03-30T02:52:13.554Z,100009.75
2023-03-30T02:54:28.625Z,100014.03
2023-03-30T02:56:37.875Z,100018.38
2023-03-30T02:58:47.957Z,100025.13
2023-03-30T03:00:55.809Z,100018.28
2023-03-30T03:03:05.336Z,100024.22
2023-03-30T03:05:11.106Z,100020.00
2023-03-30T03:07:14.444Z,100023.53
2023-03-30T03:09:16.908Z,100019.25
2023-03-30T03:11:18.891Z,100017.50
2023-03-30T03:13:22.274Z,100025.25
2023-03-30T03:15:24.231Z,100034.72
2023-03-30T03:17:34.853Z,100031.25
2023-03-30T03:19:37.241Z,100027.78
2023-03-30T03:21:39.271Z,100022.63
2023-03-30T03:23:41.571Z,100025.25
2023-03-30T03:25:43.652Z,100040.75
2023-03-30T03:27:46.303Z,100025.25
2023-03-30T03:29:48.289Z,100032.97
2023-03-30T03:31:50.395Z,100032.06
2023-03-30T03:33:52.445Z,100033.78
2023-03-30T03:35:55.319Z,100039.84
2023-03-30T03:37:57.926Z,100032.09
2023-03-30T03:39:59.959Z,100037.19
2023-03-30T03:42:01.925Z,100035.47
2023-03-30T03:44:03.893Z,100032.03
2023-03-30T03:46:06.027Z,100043.22
2023-03-30T03:48:08.661Z,100035.50
2023-03-30T03:50:11.718Z,100036.44
2023-03-30T03:52:13.727Z,100044.91
2023-03-30T03:54:16.825Z,100038.91
2023-03-30T03:56:18.845Z,100033.75
2023-03-30T03:58:24.405Z,100037.09
2023-03-30T04:00:27.005Z,100030.31
2023-03-30T04:02:29.996Z,100028.53
2023-03-30T04:04:32.325Z,100020.81
2023-03-30T04:06:34.292Z,100030.34
2023-03-30T04:08:36.737Z,100019.19
2023-03-30T04:10:40.306Z,100015.69
2023-03-30T04:12:42.345Z,100022.56
2023-03-30T04:14:44.300Z,100024.19
2023-03-30T04:16:46.643Z,100030.22
2023-03-30T04:18:48.914Z,100038.84
2023-03-30T04:20:50.808Z,100030.28
2023-03-30T04:22:53.657Z,100036.22
2023-03-30T04:24:55.647Z,100025.06
2023-03-30T04:26:57.869Z,100033.66
2023-03-30T04:29:00.390Z,100045.63
2023-03-30T04:31:05.210Z,100033.69
2023-03-30T04:33:09.476Z,100042.25
2023-03-30T04:35:12.013Z,100045.69
2023-03-30T04:37:18.339Z,100051.69
2023-03-30T04:39:20.964Z,100052.50
2023-03-30T04:41:26.279Z,100056.78
2023-03-30T04:43:28.141Z,100055.84
2023-03-30T04:45:31.250Z,100063.59
2023-03-30T04:47:34.209Z,100062.81
2023-03-30T04:49:36.022Z,100057.69
2023-03-30T04:51:39.785Z,100065.38
2023-03-30T04:53:41.652Z,100073.13
2023-03-30T04:55:51.968Z,100068.00
2023-03-30T04:57:53.840Z,100078.31
2023-03-30T04:59:55.687Z,100080.03
2023-03-30T05:01:57.463Z,100076.56
2023-03-30T05:03:59.295Z,100093.66
2023-03-30T05:06:01.292Z,100083.34
2023-03-30T05:08:03.806Z,100099.66
2023-03-30T05:10:06.061Z,100094.44
2023-03-30T05:12:07.993Z,100087.63
2023-03-30T05:14:09.828Z,100090.22
2023-03-30T05:16:11.862Z,100103.00
2023-03-30T05:18:14.023Z,100101.38
2023-03-30T05:20:16.139Z,100119.31
2023-03-30T05:22:17.947Z,100118.38
2023-03-30T05:24:19.808Z,100110.81
2023-03-30T05:26:21.837Z,100114.25
2023-03-30T05:28:23.884Z,100125.41
2023-03-30T05:30:25.673Z,100123.69
2023-03-30T05:32:27.928Z,100130.56
2023-03-30T05:34:29.783Z,100134.03
2023-03-30T05:36:32.115Z,100146.00
2023-03-30T05:38:33.951Z,100152.78
2023-03-30T05:40:35.879Z,100145.09
2023-03-30T05:42:38.290Z,100158.66
2023-03-30T05:44:40.127Z,100145.09
2023-03-30T05:46:42.025Z,100147.66
2023-03-30T05:48:43.880Z,100152.97
2023-03-30T05:50:48.506Z,100153.84
2023-03-30T05:52:50.498Z,100159.00
2023-03-30T05:54:52.435Z,100161.59
2023-03-30T05:56:54.313Z,100163.28
2023-03-30T05:58:56.223Z,100153.84
2023-03-30T06:00:58.777Z,100155.50
2023-03-30T06:03:00.702Z,100159.69
2023-03-30T06:05:03.963Z,100168.25
2023-03-30T06:07:06.685Z,100160.56
2023-03-30T06:09:08.558Z,100164.00
2023-03-30T06:11:11.511Z,100170.06
2023-03-30T06:13:13.349Z,100170.00
2023-03-30T06:15:15.421Z,100170.06
2023-03-30T06:17:17.326Z,100172.66
2023-03-30T06:19:19.289Z,100171.78
2023-03-30T06:21:21.121Z,100172.59
2023-03-30T06:23:23.160Z,100171.69
2023-03-30T06:25:25.215Z,100181.22
2023-03-30T06:27:27.249Z,100180.47
2023-03-30T06:29:29.270Z,100178.75
2023-03-30T06:31:31.296Z,100180.44
2023-03-30T06:33:33.175Z,100183.91
2023-03-30T06:35:35.253Z,100187.34
2023-03-30T06:37:37.139Z,100182.97
2023-03-30T06:39:39.091Z,100179.63
2023-03-30T06:41:41.241Z,100190.78
2023-03-30T06:43:43.342Z,100166.00
2023-03-30T06:45:55.715Z,100179.69
2023-03-30T06:47:57.757Z,100195.91
2023-03-30T06:49:59.756Z,100186.56
2023-03-30T06:52:04.892Z,100185.69
2023-03-30T06:54:07.842Z,100194.91
2023-03-30T06:56:10.159Z,100196.84
2023-03-30T06:58:12.150Z,100195.22
2023-03-30T07:00:15.482Z,100201.19
2023-03-30T07:02:21.232Z,100193.53
2023-03-30T07:04:23.578Z,100196.97
2023-03-30T07:06:25.480Z,100204.81
2023-03-30T07:08:27.406Z,100221.94
2023-03-30T07:10:29.345Z,100205.69
2023-03-30T07:12:31.362Z,100229.78
2023-03-30T07:14:33.286Z,100221.22
2023-03-30T07:16:35.426Z,100221.06
2023-03-30T07:18:37.331Z,100214.97
2023-03-30T07:20:39.343Z,100222.81
2023-03-30T07:22:42.667Z,100216.78
2023-03-30T07:24:46.003Z,100216.81
2023-03-30T07:26:47.951Z,100216.00
2023-03-30T07:28:49.863Z,100228.94
2023-03-30T07:30:53.175Z,100223.66
2023-03-30T07:32:57.725Z,100223.84
2023-03-30T07:35:00.742Z,100216.97
2023-03-30T07:37:02.724Z,100224.72
2023-03-30T07:39:04.987Z,100215.25
2023-03-30T07:41:12.597Z,100221.25
2023-03-30T07:43:14.660Z,100222.06
2023-03-30T07:45:17.268Z,100242.75
2023-03-30T07:47:19.378Z,100246.97
2023-03-30T07:49:21.703Z,100231.56
2023-03-30T07:51:24.307Z,100231.59
2023-03-30T07:53:27.260Z,100236.81
2023-03-30T07:55:29.199Z,100229.94
2023-03-30T07:57:32.345Z,100231.72
2023-03-30T07:59:34.595Z,100233.38
2023-03-30T08:01:38.314Z,100246.22
2023-03-30T08:03:45.275Z,100237.72
2023-03-30T08:05:56.921Z,100239.44
2023-03-30T08:07:58.939Z,100236.72
2023-03-30T08:10:01.240Z,100235.94
2023-03-30T08:12:03.630Z,100244.59
2023-03-30T08:14:06.712Z,100234.34
2023-03-30T08:16:09.340Z,100249.81
2023-03-30T08:18:13.175Z,100254.84
2023-03-30T08:20:15.302Z,100242.81
2023-03-30T08:22:17.325Z,100255.66
2023-03-30T08:24:19.560Z,100254.06
2023-03-30T08:26:21.749Z,100264.38
2023-03-30T08:28:24.021Z,100259.34
2023-03-30T08:30:26.615Z,100249.03
2023-03-30T08:32:28.609Z,100253.38
2023-03-30T08:34:30.587Z,100265.44
2023-03-30T08:36:32.589Z,100271.44
2023-03-30T08:38:34.542Z,100254.28
2023-03-30T08:40:42.130Z,100277.56
2023-03-30T08:43:03.819Z,100281.81
2023-03-30T08:45:09.805Z,100287.78
2023-03-30T08:47:16.794Z,100291.28
2023-03-30T08:49:23.159Z,100289.53
2023-03-30T08:51:29.385Z,100272.38
2023-03-30T08:53:34.007Z,100274.06
2023-03-30T08:55:48.499Z,100305.94
2023-03-30T08:58:03.271Z,100277.53
2023-03-30T09:00:12.578Z,100288.72
2023-03-30T09:02:18.185Z,100272.31
2023-03-30T09:04:23.701Z,100278.47
2023-03-30T09:06:34.160Z,100277.63
2023-03-30T09:08:40.861Z,100280.19
2023-03-30T09:10:48.260Z,100281.00
2023-03-30T09:12:55.805Z,100275.03
2023-03-30T09:15:03.559Z,100293.09
2023-03-30T09:17:14.450Z,100313.78
2023-03-30T09:19:25.121Z,100301.72
2023-03-30T09:21:31.122Z,100294.88
2023-03-30T09:23:38.220Z,100279.41
2023-03-30T09:26:00.786Z,100287.16
2023-03-30T09:28:20.884Z,100285.53
2023-03-30T09:30:31.672Z,100276.03
2023-03-30T09:32:41.061Z,100289.84
2023-03-30T09:34:47.057Z,100288.97
2023-03-30T09:37:00.170Z,100285.53
2023-03-30T09:39:02.318Z,100288.88
2023-03-30T09:41:23.430Z,100314.75
2023-03-30T09:43:42.205Z,100302.72
2023-03-30T09:45:45.602Z,100307.84
2023-03-30T09:47:47.706Z,100300.94
2023-03-30T09:49:56.314Z,100309.59
2023-03-30T09:52:05.379Z,100312.09
2023-03-30T09:54:07.289Z,100307.81
2023-03-30T09:56:17.349Z,100313.81
2023-03-30T09:58:26.540Z,100325.81
2023-03-30T10:00:33.383Z,100318.03
2023-03-30T10:02:35.537Z,100318.06
2023-03-30T10:05:02.551Z,100301.78
2023-03-30T10:07:23.027Z,100293.22
2023-03-30T10:09:25.251Z,100303.53
2023-03-30T10:11:36.838Z,100291.56
2023-03-30T10:13:43.286Z,100296.78
2023-03-30T10:15:50.057Z,100295.09
2023-03-30T10:17:56.480Z,100320.94
2023-03-30T10:20:14.922Z,100328.69
2023-03-30T10:22:19.161Z,100319.22
2023-03-30T10:24:28.373Z,100322.63
2023-03-30T10:26:34.846Z,100327.81
2023-03-30T10:28:37.579Z,100316.63
2023-03-30T10:30:39.946Z,100326.97
2023-03-30T10:32:46.175Z,100312.31
2023-03-30T10:34:52.981Z,100302.81
2023-03-30T10:36:55.168Z,100303.69
2023-03-30T10:39:09.323Z,100320.94
2023-03-30T10:41:17.122Z,100312.31
2023-03-30T10:43:25.510Z,100296.81
2023-03-30T10:45:41.052Z,100309.72
2023-03-30T10:48:03.195Z,100310.53
2023-03-30T10:50:15.050Z,100313.19
2023-03-30T10:52:48.515Z,100309.72
2023-03-30T10:55:11.254Z,100306.19
2023-03-30T10:57:18.895Z,100306.25
2023-03-30T10:59:32.385Z,100332.16
2023-03-30T11:01:53.855Z,100317.38
2023-03-30T11:04:20.377Z,100302.66
2023-03-30T11:06:30.949Z,100310.38
2023-03-30T11:08:37.463Z,100309.53
2023-03-30T11:10:44.251Z,100343.22
2023-03-30T11:12:54.625Z,100307.00
2023-03-30T11:15:08.626Z,100311.34
2023-03-30T11:17:20.432Z,100302.63
2023-03-30T11:19:26.430Z,100315.66
2023-03-30T11:21:44.596Z,100302.69
2023-03-30T11:23:56.525Z,100313.88
2023-03-30T11:26:01.404Z,100297.44
2023-03-30T11:28:15.758Z,100295.72
2023-03-30T11:30:26.921Z,100306.06
2023-03-30T11:32:33.836Z,100301.91
2023-03-30T11:34:50.505Z,100300.88
2023-03-30T11:37:09.099Z,100326.91
2023-03-30T11:39:31.059Z,100293.25
2023-03-30T11:41:42.950Z,100297.47
2023-03-30T11:43:45.036Z,100295.69
2023-03-30T11:45:55.507Z,100323.28
2023-03-30T11:48:14.593Z,100318.16
2023-03-30T11:50:30.034Z,100299.91
2023-03-30T11:52:48.400Z,100299.03
2023-03-30T11:55:08.568Z,100274.91
2023-03-30T11:57:30.685Z,100282.44
2023-03-30T11:59:39.812Z,100295.53
2023-03-30T12:01:59.687Z,100285.03
2023-03-30T12:04:10.938Z,100294.63
2023-03-30T12:06:26.114Z,100310.28
2023-03-30T12:08:47.463Z,100293.81
2023-03-30T12:11:01.526Z,100293.69
2023-03-30T12:13:03.616Z,100304.06
2023-03-30T12:15:23.466Z,100286.00
2023-03-30T12:17:37.063Z,100294.72
2023-03-30T12:19:56.012Z,100298.28
2023-03-30T12:22:05.884Z,100304.41
2023-03-30T12:24:19.025Z,100282.66
2023-03-30T12:26:31.094Z,100298.13
2023-03-30T12:30:53.957Z,100298.22
2023-03-30T12:32:59.782Z,100293.09
2023-03-30T12:35:01.795Z,100287.91
2023-03-30T12:37:13.423Z,100273.97
2023-03-30T12:39:26.121Z,100279.97
2023-03-30T12:41:38.537Z,100278.19
2023-03-30T12:43:48.142Z,100281.59
2023-03-30T12:46:02.948Z,100279.91
2023-03-30T12:48:27.943Z,100269.28
2023-03-30T12:50:49.718Z,100270.47
2023-03-30T12:52:59.861Z,100258.28
2023-03-30T12:55:03.657Z,100260.91
2023-03-30T12:57:14.389Z,100263.53
2023-03-30T12:59:26.411Z,100252.28
2023-03-30T13:01:51.873Z,100253.22
2023-03-30T13:03:59.455Z,100259.31
2023-03-30T13:06:03.860Z,100247.97
2023-03-30T13:08:19.308Z,100245.31
2023-03-30T13:10:32.715Z,100244.53
2023-03-30T13:12:44.049Z,100265.03
2023-03-30T13:14:46.778Z,100253.84
2023-03-30T13:17:11.304Z,100260.88
2023-03-30T13:19:30.647Z,100256.31
2023-03-30T13:21:48.029Z,100249.47
2023-03-30T13:24:02.098Z,100245.94
2023-03-30T13:26:34.741Z,100277.94
2023-03-30T13:28:56.844Z,100259.94
2023-03-30T13:31:15.647Z,100251.09
2023-03-30T13:33:22.506Z,100273.69
2023-03-30T13:35:38.576Z,100263.28
2023-03-30T13:37:49.126Z,100252.91
2023-03-30T13:40:08.973Z,100256.41
2023-03-30T13:42:18.461Z,100243.50
2023-03-30T13:44:38.389Z,100257.44
2023-03-30T13:46:49.041Z,100270.59
2023-03-30T13:49:10.841Z,100273.19
2023-03-30T13:51:16.982Z,100258.41
2023-03-30T13:53:19.723Z,100274.78
2023-03-30T13:55:27.953Z,100241.94
2023-03-30T13:57:36.811Z,100244.41
2023-03-30T13:59:45.736Z,100247.06
2023-03-30T14:01:53.759Z,100231.41
2023-03-30T14:03:57.725Z,100252.16
2023-03-30T14:06:04.251Z,100234.84
2023-03-30T14:08:10.412Z,100233.06
2023-03-30T14:10:16.085Z,100227.88
2023-03-30T14:12:18.333Z,100238.16
2023-03-30T14:14:34.813Z,100258.19
2023-03-30T14:16:40.842Z,100273.75
2023-03-30T14:18:43.233Z,100238.25
2023-03-30T14:20:59.614Z,100233.94
2023-03-30T14:23:04.363Z,100230.53
2023-03-30T14:25:22.226Z,100248.84
2023-03-30T14:27:24.460Z,100228.91
2023-03-30T14:29:31.672Z,100227.88
2023-03-30T14:31:47.292Z,100232.22
2023-03-30T14:33:57.946Z,100234.00
2023-03-30T14:36:02.224Z,100234.13
2023-03-30T14:40:16.967Z,100258.31
2023-03-30T14:42:21.707Z,100247.91
2023-03-30T14:44:26.926Z,100242.72
2023-03-30T14:46:42.800Z,100218.41
2023-03-30T14:48:49.303Z,100274.53
2023-03-30T14:50:52.927Z,100247.78
2023-03-30T14:52:55.897Z,100233.06
2023-03-30T14:55:07.476Z,100238.97
2023-03-30T14:57:17.695Z,100232.13
2023-03-30T14:59:21.050Z,100257.94
2023-03-30T15:01:31.452Z,100246.03
2023-03-30T15:03:37.717Z,100236.53
2023-03-30T15:05:42.994Z,100225.31
2023-03-30T15:07:56.462Z,100241.69
2023-03-30T15:10:00.680Z,100246.16
2023-03-30T15:12:04.197Z,100228.81
2023-03-30T15:14:14.340Z,100229.66
2023-03-30T15:16:22.162Z,100215.06
2023-03-30T15:18:27.941Z,100228.94
2023-03-30T15:20:31.930Z,100208.03
2023-03-30T15:22:44.564Z,100223.53
2023-03-30T15:24:47.059Z,100227.22
2023-03-30T15:26:50.561Z,100219.47
2023-03-30T15:28:57.052Z,100202.88
2023-03-30T15:30:59.552Z,100224.50
2023-03-30T15:33:02.823Z,100225.28
2023-03-30T15:35:08.680Z,100239.88
2023-03-30T15:37:23.019Z,100209.72
2023-03-30T15:39:34.337Z,100221.00
2023-03-30T15:41:48.110Z,100223.75
2023-03-30T15:43:54.653Z,100235.88
2023-03-30T15:46:02.682Z,100211.75
2023-03-30T15:48:06.192Z,100220.31
2023-03-30T15:50:14.670Z,100217.72
2023-03-30T15:52:22.939Z,100215.09
2023-03-30T15:54:36.377Z,100216.78
2023-03-30T15:56:41.577Z,100208.31
2023-03-30T15:58:44.043Z,100225.63
2023-03-30T16:00:46.788Z,100218.84
2023-03-30T16:02:57.931Z,100207.56
2023-03-30T16:05:01.840Z,100207.63
2023-03-30T16:07:15.440Z,100203.28
2023-03-30T16:09:17.920Z,100219.59
2023-03-30T16:11:21.546Z,100199.78
2023-03-30T16:13:23.961Z,100191.06
2023-03-30T16:15:30.111Z,100205.78
2023-03-30T16:17:34.288Z,100192.88
2023-03-30T16:19:38.501Z,100197.25
2023-03-30T16:21:42.534Z,100181.75
2023-03-30T16:23:46.131Z,100186.06
2023-03-30T16:25:48.493Z,100185.19
2023-03-30T16:27:50.439Z,100210.25
2023-03-30T16:29:52.738Z,100176.56
2023-03-30T16:31:55.621Z,100173.25
2023-03-30T16:33:57.866Z,100191.31
2023-03-30T16:35:59.971Z,100156.69
2023-03-30T16:38:02.052Z,100164.47
2023-03-30T16:40:13.169Z,100169.75
2023-03-30T16:42:18.320Z,100164.56
2023-03-30T16:44:22.550Z,100166.34
2023-03-30T16:46:24.739Z,100174.00
2023-03-30T16:48:29.105Z,100174.06
2023-03-30T16:50:44.247Z,100180.19
2023-03-30T16:52:46.343Z,100170.69
2023-03-30T16:54:48.488Z,100168.88
2023-03-30T16:56:50.624Z,100173.31
2023-03-30T16:58:52.853Z,100179.41
2023-03-30T17:01:03.435Z,100175.13
2023-03-30T17:03:05.919Z,100181.13
2023-03-30T17:05:08.428Z,100174.16
2023-03-30T17:07:10.805Z,100165.53
2023-03-30T17:09:16.967Z,100177.72
2023-03-30T17:11:19.039Z,100179.44
2023-03-30T17:13:21.386Z,100174.25
2023-03-30T17:15:24.950Z,100160.47
2023-03-30T17:17:27.586Z,100161.28
2023-03-30T17:19:31.110Z,100143.19
2023-03-30T17:21:33.205Z,100160.44
2023-03-30T17:23:35.693Z,100163.94
2023-03-30T17:25:40.099Z,100163.09
2023-03-30T17:27:42.468Z,100150.16
2023-03-30T17:29:44.484Z,100158.84
2023-03-30T17:31:46.520Z,100159.69
2023-03-30T17:33:49.488Z,100160.63
2023-03-30T17:35:55.145Z,100130.44
2023-03-30T17:37:57.235Z,100158.00
2023-03-30T17:40:00.009Z,100132.16
2023-03-30T17:42:02.182Z,100135.63
2023-03-30T17:44:06.778Z,100129.53
2023-03-30T17:46:13.537Z,100146.78
2023-03-30T17:48:18.537Z,100129.59
2023-03-30T17:50:24.099Z,100154.56
2023-03-30T17:52:30.457Z,100135.53
2023-03-30T17:54:33.398Z,100135.56
2023-03-30T17:56:35.455Z,100132.97
2023-03-30T17:58:37.474Z,100134.72
2023-03-30T18:00:39.564Z,100144.22
2023-03-30T18:02:41.542Z,100144.25
2023-03-30T18:04:43.501Z,100140.78
2023-03-30T18:06:45.702Z,100151.16
2023-03-30T18:08:48.890Z,100153.72
2023-03-30T18:10:52.943Z,100149.44
2023-03-30T18:12:55.448Z,100149.41
2023-03-30T18:14:57.603Z,100151.13
2023-03-30T18:17:06.357Z,100158.06
2023-03-30T18:19:11.900Z,100156.31
2023-03-30T18:21:13.921Z,100141.69
2023-03-30T18:23:15.983Z,100142.53
2023-03-30T18:25:31.546Z,100152.88
2023-03-30T18:27:35.135Z,100131.34
2023-03-30T18:29:37.989Z,100134.78
2023-03-30T18:31:39.918Z,100140.81
2023-03-30T18:33:42.008Z,100131.34
2023-03-30T18:35:45.943Z,100123.59
2023-03-30T18:37:49.228Z,100118.41
2023-03-30T18:39:51.157Z,100119.28
2023-03-30T18:41:53.140Z,100115.84
2023-03-30T18:43:55.078Z,100106.34
2023-03-30T18:46:02.697Z,100111.50
2023-03-30T18:48:07.342Z,100108.91
2023-03-30T18:50:14.442Z,100100.31
2023-03-30T18:52:17.397Z,100107.19
2023-03-30T18:54:19.967Z,100096.84
2023-03-30T18:56:22.048Z,100091.72
2023-03-30T18:58:26.721Z,100092.56
2023-03-30T19:00:31.700Z,100099.44
2023-03-30T19:02:34.710Z,100095.97
2023-03-30T19:04:38.058Z,100099.44
2023-03-30T19:06:40.288Z,100083.06
2023-03-30T19:08:43.725Z,100083.94
2023-03-30T19:10:47.389Z,100088.25
2023-03-30T19:12:53.846Z,100083.94
2023-03-30T19:14:56.706Z,100075.31
2023-03-30T19:16:59.942Z,100067.59
2023-03-30T19:19:02.262Z,100063.28
2023-03-30T19:21:05.215Z,100055.50
2023-03-30T19:23:13.602Z,100055.53
2023-03-30T19:25:18.019Z,100057.25
2023-03-30T19:27:21.264Z,100056.38
2023-03-30T19:29:24.430Z,100058.09
2023-03-30T19:31:27.828Z,100057.19
2023-03-30T19:33:31.020Z,100054.63
2023-03-30T19:35:34.633Z,100042.63
2023-03-30T19:37:39.366Z,100044.31
2023-03-30T19:39:42.982Z,100034.81
2023-03-30T19:41:45.741Z,100031.41
2023-03-30T19:43:50.584Z,100026.25
2023-03-30T19:45:53.438Z,100023.66
2023-03-30T19:47:56.538Z,100014.19
2023-03-30T19:49:59.503Z,100006.44
2023-03-30T19:52:01.798Z,100003.84
2023-03-30T19:54:04.016Z,99990.09
2023-03-30T19:56:11.228Z,99990.06
2023-03-30T19:58:13.867Z,99987.50
2023-03-30T20:00:17.553Z,99978.88
2023-03-30T20:02:20.028Z,99979.75
2023-03-30T20:04:22.876Z,99964.22
2023-03-30T20:06:25.482Z,99965.97
2023-03-30T20:08:28.016Z,99959.97
2023-03-30T20:10:30.622Z,99959.91
2023-03-30T20:12:32.781Z,99956.50
2023-03-30T20:14:35.570Z,99957.38
2023-03-30T20:16:37.629Z,99945.31
2023-03-30T20:18:40.582Z,99945.31
2023-03-30T20:20:42.586Z,99932.38
2023-03-30T20:22:45.105Z,99919.47
2023-03-30T20:24:47.187Z,99917.75
2023-03-30T20:26:49.172Z,99916.91
2023-03-30T20:28:51.257Z,99913.44
2023-03-30T20:30:56.314Z,99908.28
2023-03-30T20:33:07.525Z,99902.28
2023-03-30T20:35:11.460Z,99898.84
2023-03-30T20:37:13.542Z,99889.38
2023-03-30T20:39:16.354Z,99886.78
2023-03-30T20:41:21.957Z,99886.72
2023-03-30T20:43:40.542Z,99873.00
2023-03-30T20:45:49.241Z,99878.19
2023-03-30T20:47:54.385Z,99863.59
2023-03-30T20:49:57.297Z,99863.56
2023-03-30T20:52:01.461Z,99875.66
2023-03-30T20:54:05.224Z,99860.16
2023-03-30T20:56:10.802Z,99853.34
2023-03-30T20:58:13.621Z,99850.78
2023-03-30T21:00:17.157Z,99852.50
2023-03-30T21:02:20.360Z,99841.28
2023-03-30T21:04:23.284Z,99828.41
2023-03-30T21:06:29.971Z,99822.38
2023-03-30T21:08:33.999Z,99823.22
2023-03-30T21:10:37.060Z,99805.16
2023-03-30T21:12:40.074Z,99808.56
2023-03-30T21:14:42.899Z,99808.63
2023-03-30T21:16:45.807Z,99793.97
2023-03-30T21:18:51.199Z,99785.34
2023-03-30T21:20:54.052Z,99787.97
2023-03-30T21:22:57.150Z,99777.59
2023-03-30T21:24:59.984Z,99787.94
2023-03-30T21:27:04.234Z,99768.19
2023-03-30T21:29:07.445Z,99769.06
2023-03-30T21:31:12.484Z,99771.66
2023-03-30T21:33:14.652Z,99771.66
2023-03-30T21:35:16.698Z,99773.41
2023-03-30T21:37:19.102Z,99774.28
2023-03-30T21:39:21.161Z,99764.81
2023-03-30T21:41:24.569Z,99752.75
2023-03-30T21:43:28.332Z,99757.91
2023-03-30T21:45:30.298Z,99733.84
2023-03-30T21:47:32.278Z,99741.59
2023-03-30T21:49:34.420Z,99718.38
2023-03-30T21:51:36.790Z,99705.53
2023-03-30T21:53:39.079Z,99694.31
2023-03-30T21:55:40.986Z,99681.44
2023-03-30T21:57:42.867Z,99658.22
2023-03-30T21:59:44.823Z,99662.53
2023-03-30T22:01:46.790Z,99658.25
2023-03-30T22:03:48.947Z,99657.41
2023-03-30T22:05:51.247Z,99657.38
2023-03-30T22:07:53.378Z,99636.75
2023-03-30T22:09:58.237Z,99629.03
2023-03-30T22:12:00.422Z,99640.22
2023-03-30T22:14:02.370Z,99625.63
2023-03-30T22:16:11.017Z,99624.75
2023-03-30T22:18:12.893Z,99617.91
2023-03-30T22:20:15.148Z,99617.94
2023-03-30T22:22:17.046Z,99594.72
2023-03-30T22:24:20.439Z,99588.69
2023-03-30T22:26:22.575Z,99583.50
2023-03-30T22:28:26.064Z,99584.41
2023-03-30T22:30:27.950Z,99574.13
2023-03-30T22:32:32.876Z,99566.38
2023-03-30T22:34:35.065Z,99556.94
2023-03-30T22:36:36.936Z,99550.06
2023-03-30T22:38:38.811Z,99545.81
2023-03-30T22:40:43.540Z,99536.34
2023-03-30T22:42:45.768Z,99528.59
2023-03-30T22:44:47.766Z,99528.59
2023-03-30T22:46:49.676Z,99520.03
2023-03-30T22:48:55.993Z,99507.13
2023-03-30T22:51:02.356Z,99502.84
2023-03-30T22:53:06.717Z,99503.69
2023-03-30T22:55:09.202Z,99493.38
2023-03-30T22:57:11.346Z,99489.97
2023-03-30T22:59:13.443Z,99474.47
2023-03-30T23:01:16.019Z,99469.41
2023-03-30T23:03:18.278Z,99465.09
2023-03-30T23:05:22.090Z,99454.75
2023-03-30T23:07:24.320Z,99441.00
2023-03-30T23:09:28.799Z,99437.53
2023-03-30T23:11:32.406Z,99429.00
2023-03-30T23:13:37.628Z,99423.78
2023-03-30T23:15:40.112Z,99417.91
2023-03-30T23:17:43.187Z,99413.59
2023-03-30T23:19:45.820Z,99398.91
2023-03-30T23:21:48.012Z,99405.88
2023-03-30T23:23:49.902Z,99387.78
2023-03-30T23:25:52.268Z,99380.97
2023-03-30T23:27:54.128Z,99373.22
2023-03-30T23:29:55.948Z,99374.09
2023-03-30T23:31:58.564Z,99369.06
2023-03-30T23:34:00.627Z,99355.31
2023-03-30T23:36:02.955Z,99364.75
2023-03-30T23:38:05.747Z,99345.84
2023-03-30T23:40:09.875Z,99353.56
2023-03-30T23:42:11.803Z,99348.34
2023-03-30T23:44:13.686Z,99359.56
2023-03-30T23:46:16.359Z,99349.28
2023-03-30T23:48:18.893Z,99330.44
2023-03-30T23:50:20.819Z,99320.97
2023-03-30T23:52:22.673Z,99329.50
2023-03-30T23:54:24.872Z,99319.22
2023-03-30T23:56:32.246Z,99304.66
2023-03-30T23:58:34.245Z,99299.50
